Time;durP1;ratioP1;P1;durP2;ratioP2;P2;SDS_P1;SDS_P2;PMS_P1;PMS_P2;Temp;Humidity;BMP_temperature;BMP_pressure;BME280_temperature;BME280_humidity;BME280_pressure;Samples;Min_cycle;Max_cycle;Signal;HPM_P1;HPM_P2
2021/07/17 00:01:52;;;;;;;89.30;9.90;;;22.00;86.00;;;;;;4981943;28;20114;-59
2021/07/17 00:04:18;;;;;;;70.38;9.07;;;22.10;86.20;;;;;;4982314;28;20041;-59
2021/07/17 00:06:43;;;;;;;78.30;8.15;;;22.00;86.20;;;;;;4981690;28;20030;-59
2021/07/17 00:09:09;;;;;;;71.88;7.90;;;22.00;86.30;;;;;;4981940;28;20478;-59
2021/07/17 00:11:34;;;;;;;67.10;8.13;;;22.00;86.50;;;;;;4981304;28;20041;-59
2021/07/17 00:14:00;;;;;;;71.55;8.85;;;22.00;87.50;;;;;;4979808;28;20025;-58
2021/07/17 00:16:26;;;;;;;67.07;8.35;;;22.00;86.80;;;;;;4982863;28;20026;-59
2021/07/17 00:18:55;;;;;;;57.60;7.05;;;22.00;87.00;;;;;;4982943;28;20065;-59
2021/07/17 00:21:21;;;;;;;55.72;8.15;;;21.90;86.90;;;;;;4981301;28;20033;-58
2021/07/17 00:23:46;;;;;;;67.47;7.95;;;21.90;87.20;;;;;;4981294;28;20034;-59
2021/07/17 00:26:12;;;;;;;55.13;7.82;;;21.90;87.30;;;;;;4997438;28;20034;-58
2021/07/17 00:28:37;;;;;;;59.42;8.35;;;21.80;87.30;;;;;;4977855;28;20042;-59
2021/07/17 00:31:03;;;;;;;40.55;7.15;;;21.90;87.40;;;;;;4981920;28;20046;-58
2021/07/17 00:33:28;;;;;;;39.20;6.90;;;21.80;87.50;;;;;;4982386;28;20034;-59
2021/07/17 00:35:54;;;;;;;32.15;6.15;;;21.80;87.60;;;;;;4981158;28;20030;-60
2021/07/17 00:38:19;;;;;;;51.00;7.13;;;21.80;87.60;;;;;;4960706;28;1046285;-60
2021/07/17 00:40:45;;;;;;;38.20;6.53;;;21.80;87.80;;;;;;4981755;28;20485;-60
2021/07/17 00:43:10;;;;;;;42.25;6.50;;;21.80;87.90;;;;;;4981005;28;20062;-60
2021/07/17 00:45:36;;;;;;;35.03;7.82;;;21.80;88.00;;;;;;4983263;28;20346;-59
2021/07/17 00:48:02;;;;;;;32.75;6.97;;;21.70;88.10;;;;;;4982344;28;20112;-60
2021/07/17 00:50:27;;;;;;;34.10;6.65;;;21.70;88.20;;;;;;4980233;28;20038;-60
2021/07/17 00:52:53;;;;;;;37.95;7.07;;;21.70;88.40;;;;;;4980263;28;20046;-59
2021/07/17 00:55:19;;;;;;;40.83;6.93;;;21.70;88.40;;;;;;4981793;28;20069;-60
2021/07/17 00:57:46;;;;;;;32.78;7.32;;;21.60;88.40;;;;;;4980423;28;20128;-59
2021/07/17 01:00:13;;;;;;;21.85;5.68;;;21.60;88.50;;;;;;4981438;28;20022;-60
2021/07/17 01:03:06;;;;;;;34.60;5.63;;;21.60;88.40;;;;;;4981111;28;20026;-59
2021/07/17 01:05:31;;;;;;;37.88;6.22;;;21.60;88.50;;;;;;4965637;28;20386;-60
2021/07/17 01:07:57;;;;;;;22.60;6.28;;;21.60;88.50;;;;;;4982329;28;20022;-60
2021/07/17 01:10:23;;;;;;;25.35;5.43;;;21.60;88.60;;;;;;4980768;28;20116;-59
2021/07/17 01:12:49;;;;;;;19.58;5.13;;;21.60;88.70;;;;;;4974861;28;20034;-60
2021/07/17 01:15:14;;;;;;;18.27;5.85;;;21.50;88.60;;;;;;4979722;28;20102;-60
2021/07/17 01:17:40;;;;;;;19.88;5.38;;;21.50;88.70;;;;;;4979041;28;20060;-59
2021/07/17 01:20:08;;;;;;;21.02;5.03;;;21.50;88.70;;;;;;4979475;28;20029;-60
2021/07/17 01:22:34;;;;;;;31.73;5.22;;;21.50;88.90;;;;;;4978536;28;20100;-60
2021/07/17 01:24:59;;;;;;;11.55;4.47;;;21.50;88.90;;;;;;4980346;28;20041;-60
2021/07/17 01:27:25;;;;;;;14.43;4.88;;;21.50;89.00;;;;;;4962381;28;20042;-59
2021/07/17 01:29:50;;;;;;;22.48;4.80;;;21.50;89.10;;;;;;4979664;28;20037;-60
2021/07/17 01:32:19;;;;;;;14.85;4.30;;;21.50;89.30;;;;;;4983563;28;20719;-60
2021/07/17 01:34:45;;;;;;;20.65;4.70;;;21.50;89.50;;;;;;4985393;28;20732;-60
2021/07/17 01:37:10;;;;;;;16.20;4.40;;;21.50;89.50;;;;;;4983636;28;20107;-60
2021/07/17 01:39:36;;;;;;;15.82;4.30;;;21.50;89.60;;;;;;4985136;28;20038;-60
2021/07/17 01:42:02;;;;;;;15.20;4.18;;;21.40;89.60;;;;;;4985866;28;20072;-59
2021/07/17 01:44:27;;;;;;;12.25;4.10;;;21.40;89.60;;;;;;4984483;28;20101;-60
2021/07/17 01:46:53;;;;;;;10.85;4.03;;;21.40;89.80;;;;;;4986501;28;20034;-60
2021/07/17 01:49:19;;;;;;;12.68;4.03;;;21.40;89.90;;;;;;4985628;28;20398;-60
2021/07/17 01:51:44;;;;;;;10.18;4.38;;;21.30;89.90;;;;;;4984123;28;20157;-60
2021/07/17 01:54:10;;;;;;;18.00;4.20;;;21.40;90.00;;;;;;4986266;28;20106;-60
2021/07/17 01:56:35;;;;;;;13.68;3.80;;;21.30;90.00;;;;;;4985446;28;20189;-60
2021/07/17 01:59:01;;;;;;;12.95;3.33;;;21.30;90.00;;;;;;4986646;28;20104;-59
2021/07/17 02:01:26;;;;;;;9.13;3.30;;;21.30;90.00;;;;;;4986540;28;20030;-59
2021/07/17 02:03:52;;;;;;;6.90;3.40;;;21.30;90.00;;;;;;5001343;28;20072;-60
2021/07/17 02:06:24;;;;;;;8.63;3.28;;;21.30;90.00;;;;;;4986899;28;20030;-60
2021/07/17 02:08:50;;;;;;;7.65;4.75;;;21.30;90.00;;;;;;4967052;28;20130;-60
2021/07/17 02:11:16;;;;;;;11.77;5.90;;;21.30;90.10;;;;;;4984943;28;20453;-60
2021/07/17 02:13:41;;;;;;;14.63;5.85;;;21.30;90.10;;;;;;4985290;28;20148;-60
2021/07/17 02:16:07;;;;;;;9.55;4.57;;;21.30;90.20;;;;;;4986250;28;20157;-60
2021/07/17 02:18:33;;;;;;;9.60;4.22;;;21.20;90.20;;;;;;4984659;28;20105;-60
2021/07/17 02:21:03;;;;;;;8.90;3.72;;;21.20;90.20;;;;;;4984778;28;20023;-60
2021/07/17 02:23:28;;;;;;;11.20;4.35;;;21.20;90.20;;;;;;4985755;28;20269;-60
2021/07/17 02:25:54;;;;;;;12.55;4.25;;;21.20;90.30;;;;;;4986434;28;20360;-60
2021/07/17 02:28:20;;;;;;;9.10;4.22;;;21.20;90.30;;;;;;4984882;28;20034;-59
2021/07/17 02:30:47;;;;;;;7.40;4.28;;;21.20;90.30;;;;;;4983658;28;20030;-60
2021/07/17 02:33:12;;;;;;;9.38;4.18;;;21.20;90.30;;;;;;4983233;28;20482;-60
2021/07/17 02:35:38;;;;;;;10.40;4.00;;;21.20;90.40;;;;;;4959221;28;20080;-59
2021/07/17 02:38:03;;;;;;;8.48;3.65;;;21.20;90.40;;;;;;4983092;28;20067;-60
2021/07/17 02:40:29;;;;;;;9.00;3.65;;;21.20;90.50;;;;;;4985157;28;20092;-60
2021/07/17 02:42:54;;;;;;;7.70;3.97;;;21.10;90.50;;;;;;4984666;28;20621;-60
2021/07/17 02:45:20;;;;;;;9.68;3.88;;;21.10;90.50;;;;;;4983827;28;20233;-60
2021/07/17 02:47:45;;;;;;;12.32;3.88;;;21.10;90.50;;;;;;4985820;28;20168;-59
2021/07/17 02:50:11;;;;;;;7.65;3.33;;;21.10;90.40;;;;;;4985251;28;20556;-60
2021/07/17 02:52:37;;;;;;;6.18;3.70;;;21.10;90.40;;;;;;4983191;28;20046;-59
2021/07/17 02:55:04;;;;;;;7.53;3.65;;;21.10;90.50;;;;;;4985604;28;20033;-58
2021/07/17 02:57:29;;;;;;;8.70;3.80;;;21.10;90.50;;;;;;4981758;28;20022;-59
2021/07/17 02:59:55;;;;;;;12.13;4.65;;;21.10;90.60;;;;;;4985317;28;20550;-58
2021/07/17 03:02:21;;;;;;;9.20;4.30;;;21.10;90.70;;;;;;4984175;28;20034;-58
2021/07/17 03:04:46;;;;;;;4.95;3.80;;;21.10;90.70;;;;;;4985418;28;20096;-61
2021/07/17 03:07:12;;;;;;;7.05;4.00;;;21.00;90.70;;;;;;4985277;28;20038;-58
2021/07/17 03:09:37;;;;;;;8.20;4.40;;;21.00;90.70;;;;;;4982107;28;20366;-58
2021/07/17 03:12:03;;;;;;;5.35;4.00;;;21.00;91.00;;;;;;4982131;28;20125;-58
2021/07/17 03:14:29;;;;;;;8.40;4.10;;;21.10;90.80;;;;;;4983851;28;20018;-58
2021/07/17 03:16:54;;;;;;;10.68;3.50;;;21.00;90.80;;;;;;4983649;28;20462;-58
2021/07/17 03:19:20;;;;;;;8.77;3.75;;;21.00;90.80;;;;;;4983355;28;20022;-58
2021/07/17 03:21:45;;;;;;;7.15;3.40;;;21.00;90.90;;;;;;4983510;28;20125;-57
2021/07/17 03:24:11;;;;;;;6.80;3.47;;;21.00;90.90;;;;;;4982763;28;20038;-57
2021/07/17 03:26:36;;;;;;;13.23;3.95;;;20.90;90.90;;;;;;4999084;28;20061;-58
2021/07/17 03:29:02;;;;;;;6.85;3.50;;;21.00;90.90;;;;;;4983247;28;20038;-58
2021/07/17 03:31:31;;;;;;;9.65;4.18;;;20.90;90.90;;;;;;4981179;28;20104;-57
2021/07/17 03:33:57;;;;;;;7.53;3.92;;;20.90;90.90;;;;;;4983590;28;20447;-57
2021/07/17 03:36:23;;;;;;;7.70;3.65;;;20.90;91.00;;;;;;4979700;28;20038;-58
2021/07/17 03:38:49;;;;;;;6.50;3.35;;;20.90;91.00;;;;;;4981797;28;20054;-58
2021/07/17 03:41:14;;;;;;;8.20;3.75;;;20.90;91.00;;;;;;4981769;28;21082;-58
2021/07/17 03:43:40;;;;;;;8.27;3.72;;;20.90;91.00;;;;;;4981764;28;20034;-58
2021/07/17 03:46:05;;;;;;;5.82;3.22;;;20.90;91.00;;;;;;4983149;28;20581;-58
2021/07/17 03:48:31;;;;;;;7.25;3.53;;;20.90;91.10;;;;;;4980738;28;20038;-58
2021/07/17 03:50:56;;;;;;;8.05;3.40;;;20.80;91.10;;;;;;4983606;28;20038;-58
2021/07/17 03:53:22;;;;;;;6.90;3.47;;;20.80;91.10;;;;;;4981945;28;20255;-58
2021/07/17 03:55:47;;;;;;;5.35;3.42;;;20.80;91.10;;;;;;4982936;28;20022;-58
2021/07/17 03:58:13;;;;;;;7.32;3.65;;;20.80;91.10;;;;;;4982944;28;20042;-58
2021/07/17 04:00:38;;;;;;;6.07;3.20;;;20.80;91.10;;;;;;4981938;28;20027;-58
2021/07/17 04:03:04;;;;;;;7.15;3.15;;;20.80;91.00;;;;;;4984352;28;20034;-58
2021/07/17 04:05:30;;;;;;;7.15;3.30;;;20.80;91.10;;;;;;4983777;28;20034;-59
2021/07/17 04:07:55;;;;;;;7.78;3.70;;;20.80;91.10;;;;;;4983385;28;20053;-58
2021/07/17 04:10:21;;;;;;;6.13;3.60;;;20.80;91.10;;;;;;4984010;28;20050;-58
2021/07/17 04:12:46;;;;;;;4.57;3.53;;;20.70;91.30;;;;;;4981059;28;20116;-58
2021/07/17 04:15:12;;;;;;;5.28;3.40;;;20.70;91.30;;;;;;4983256;28;20054;-58
2021/07/17 04:17:38;;;;;;;7.05;3.47;;;20.70;91.20;;;;;;4984222;28;20018;-57
2021/07/17 04:20:05;;;;;;;6.40;3.15;;;20.70;91.30;;;;;;4984001;28;20034;-58
2021/07/17 04:22:30;;;;;;;5.93;3.20;;;20.70;91.30;;;;;;4982099;28;20468;-59
2021/07/17 04:24:56;;;;;;;5.38;2.88;;;20.70;91.30;;;;;;4980948;28;20670;-59
2021/07/17 04:27:21;;;;;;;6.70;3.55;;;20.70;91.40;;;;;;4982328;28;20054;-58
2021/07/17 04:29:47;;;;;;;5.43;2.95;;;20.70;91.40;;;;;;4981595;28;20035;-58
2021/07/17 04:32:12;;;;;;;5.88;3.17;;;20.70;91.50;;;;;;4982997;28;20042;-58
2021/07/17 04:34:38;;;;;;;6.95;3.47;;;20.70;91.60;;;;;;4983378;28;20122;-58
2021/07/17 04:37:03;;;;;;;8.43;3.38;;;20.70;91.60;;;;;;4981119;28;20086;-58
2021/07/17 04:39:29;;;;;;;5.35;3.03;;;20.70;91.50;;;;;;4996762;28;20052;-58
2021/07/17 04:41:54;;;;;;;5.68;2.85;;;20.70;91.60;;;;;;4983725;28;21368;-58
2021/07/17 04:44:20;;;;;;;4.65;3.30;;;20.60;91.50;;;;;;4983923;28;20467;-58
2021/07/17 04:46:45;;;;;;;7.65;3.30;;;20.60;91.60;;;;;;4983825;28;20034;-58
2021/07/17 04:49:11;;;;;;;5.38;3.00;;;20.60;91.70;;;;;;4981651;28;20031;-58
2021/07/17 04:51:36;;;;;;;6.28;3.88;;;20.60;91.60;;;;;;4983189;28;20294;-58
2021/07/17 04:54:02;;;;;;;5.60;3.22;;;20.60;91.60;;;;;;4981788;28;20024;-58
2021/07/17 04:56:27;;;;;;;5.75;3.30;;;20.60;91.50;;;;;;4981154;28;20470;-58
2021/07/17 04:58:53;;;;;;;10.32;2.97;;;20.60;91.50;;;;;;4983714;28;20099;-58
2021/07/17 05:01:18;;;;;;;6.13;3.40;;;20.60;91.50;;;;;;4982415;28;20634;-58
2021/07/17 05:03:44;;;;;;;4.55;2.97;;;20.60;91.50;;;;;;4981412;28;20077;-58
2021/07/17 05:06:10;;;;;;;4.55;3.38;;;20.70;91.60;;;;;;4983434;28;20508;-57
2021/07/17 05:08:35;;;;;;;4.97;3.78;;;20.60;91.50;;;;;;4981535;28;20034;-58
2021/07/17 05:11:01;;;;;;;6.22;3.67;;;20.60;91.50;;;;;;4983313;28;20031;-58
2021/07/17 05:13:26;;;;;;;7.05;4.00;;;20.70;91.60;;;;;;4979686;28;20437;-57
2021/07/17 05:15:52;;;;;;;6.82;4.50;;;20.70;91.70;;;;;;4983230;28;20117;-58
2021/07/17 05:18:18;;;;;;;6.45;3.95;;;20.70;91.60;;;;;;4982314;28;20022;-58
2021/07/17 05:20:43;;;;;;;4.90;3.83;;;20.70;91.50;;;;;;4983085;28;20149;-58
2021/07/17 05:23:09;;;;;;;5.55;4.00;;;20.60;91.50;;;;;;4983133;28;20054;-58
2021/07/17 05:25:35;;;;;;;4.82;4.32;;;20.70;91.60;;;;;;4982529;28;20421;-58
2021/07/17 05:28:01;;;;;;;6.97;4.22;;;20.70;91.60;;;;;;4965486;28;20026;-58
2021/07/17 05:30:26;;;;;;;5.15;4.30;;;20.70;91.70;;;;;;4980980;28;20030;-58
2021/07/17 05:32:52;;;;;;;5.28;4.47;;;20.70;91.60;;;;;;4980291;28;20038;-59
2021/07/17 05:35:17;;;;;;;5.20;4.70;;;20.70;91.60;;;;;;4982167;28;20046;-58
2021/07/17 05:37:43;;;;;;;5.88;4.60;;;20.60;91.60;;;;;;4980170;28;20049;-58
2021/07/17 05:40:09;;;;;;;5.57;4.10;;;20.70;91.60;;;;;;4980716;28;20034;-59
2021/07/17 05:42:34;;;;;;;6.55;4.40;;;20.70;91.60;;;;;;4981522;28;20086;-58
2021/07/17 05:45:00;;;;;;;6.18;4.85;;;20.70;91.60;;;;;;4981573;28;20053;-58
2021/07/17 05:47:26;;;;;;;7.22;4.20;;;20.70;91.60;;;;;;4997845;28;20076;-58
2021/07/17 05:49:52;;;;;;;4.70;4.20;;;20.60;91.50;;;;;;4982755;28;20097;-58
2021/07/17 05:52:17;;;;;;;6.90;4.35;;;20.70;91.50;;;;;;4981710;28;20410;-58
2021/07/17 05:54:43;;;;;;;5.00;4.07;;;20.70;91.50;;;;;;4983150;28;20466;-58
2021/07/17 05:57:08;;;;;;;7.30;4.93;;;20.70;91.50;;;;;;4981055;28;20395;-57
2021/07/17 05:59:36;;;;;;;5.65;4.35;;;20.70;91.60;;;;;;4981916;28;20496;-57
2021/07/17 06:02:02;;;;;;;9.45;4.20;;;20.70;91.50;;;;;;4981385;28;20300;-58
2021/07/17 06:04:27;;;;;;;5.10;4.10;;;20.70;91.50;;;;;;4982546;28;20050;-58
2021/07/17 06:06:53;;;;;;;5.38;4.25;;;20.60;91.50;;;;;;4982465;28;20030;-58
2021/07/17 06:09:18;;;;;;;8.52;4.20;;;20.70;91.50;;;;;;4981350;28;20030;-58
2021/07/17 06:11:44;;;;;;;6.38;4.45;;;20.70;91.50;;;;;;4981103;28;20426;-57
2021/07/17 06:14:09;;;;;;;12.43;4.07;;;20.60;91.40;;;;;;4982448;28;20038;-57
2021/07/17 06:16:35;;;;;;;11.57;5.45;;;20.60;91.50;;;;;;4999263;28;20057;-58
2021/07/17 06:19:00;;;;;;;5.45;4.15;;;20.70;91.60;;;;;;4986509;28;20117;-58
2021/07/17 06:21:26;;;;;;;7.85;4.32;;;20.60;91.50;;;;;;4986264;28;20019;-58
2021/07/17 06:23:51;;;;;;;6.90;4.50;;;20.60;91.50;;;;;;4986374;28;20037;-60
2021/07/17 06:26:17;;;;;;;9.35;4.28;;;20.60;91.60;;;;;;4984158;28;20137;-61
2021/07/17 06:28:42;;;;;;;7.95;4.10;;;20.60;91.60;;;;;;4985904;28;20038;-59
2021/07/17 06:31:08;;;;;;;7.35;4.35;;;20.70;91.70;;;;;;4984867;28;20393;-58
2021/07/17 06:33:34;;;;;;;12.43;4.40;;;20.70;91.70;;;;;;4990205;28;20043;-59
2021/07/17 06:35:59;;;;;;;9.25;4.63;;;20.60;91.60;;;;;;4986122;28;20026;-59
2021/07/17 06:38:25;;;;;;;5.63;4.32;;;20.70;91.60;;;;;;4985374;28;20543;-59
2021/07/17 06:40:50;;;;;;;11.05;4.68;;;20.70;91.60;;;;;;4985352;28;20049;-59
2021/07/17 06:43:16;;;;;;;18.15;5.28;;;20.70;91.60;;;;;;4985698;28;20039;-59
2021/07/17 06:45:42;;;;;;;16.13;5.05;;;20.70;91.50;;;;;;4984662;28;20065;-59
2021/07/17 06:48:08;;;;;;;14.50;5.13;;;20.70;91.40;;;;;;5000798;28;20030;-59
2021/07/17 06:50:34;;;;;;;24.83;5.30;;;20.70;91.40;;;;;;4985461;28;20410;-59
2021/07/17 06:52:59;;;;;;;24.83;5.90;;;20.70;91.50;;;;;;4984598;28;20065;-59
2021/07/17 06:55:26;;;;;;;26.85;5.93;;;20.70;91.60;;;;;;4986168;28;20030;-60
2021/07/17 06:57:52;;;;;;;21.05;5.40;;;20.70;91.70;;;;;;4985678;28;20057;-59
2021/07/17 07:00:18;;;;;;;23.02;6.13;;;20.80;91.70;;;;;;4985754;28;20089;-59
2021/07/17 07:02:43;;;;;;;47.47;8.27;;;20.70;91.60;;;;;;4983712;28;20038;-59
2021/07/17 07:05:09;;;;;;;58.28;8.68;;;20.70;91.60;;;;;;4985172;28;20046;-59
2021/07/17 07:07:35;;;;;;;43.47;7.32;;;20.70;91.60;;;;;;4984616;28;20955;-59
2021/07/17 07:10:02;;;;;;;62.65;8.20;;;20.70;91.80;;;;;;4983851;28;20062;-59
2021/07/17 07:12:28;;;;;;;42.20;6.72;;;20.80;91.80;;;;;;4984007;28;20485;-59
2021/07/17 07:14:53;;;;;;;31.45;6.82;;;20.70;91.80;;;;;;4985368;28;20035;-59
2021/07/17 07:17:19;;;;;;;41.05;6.50;;;20.80;91.90;;;;;;4984450;28;20045;-59
2021/07/17 07:19:44;;;;;;;42.97;7.95;;;20.80;91.80;;;;;;4985508;28;20057;-59
2021/07/17 07:22:10;;;;;;;51.05;7.95;;;20.80;91.80;;;;;;4984992;28;20031;-59
2021/07/17 07:24:35;;;;;;;38.03;7.30;;;20.80;91.90;;;;;;4985446;28;20071;-60
2021/07/17 07:27:01;;;;;;;43.30;7.53;;;20.80;92.00;;;;;;4981318;28;20025;-59
2021/07/17 07:29:27;;;;;;;31.67;6.75;;;20.80;91.90;;;;;;4983986;28;20043;-59
2021/07/17 07:31:52;;;;;;;22.60;7.22;;;20.80;91.90;;;;;;4997182;28;20034;-59
2021/07/17 07:34:20;;;;;;;55.53;7.95;;;20.80;91.90;;;;;;4984284;28;20034;-58
2021/07/17 07:36:46;;;;;;;38.08;7.22;;;20.80;92.00;;;;;;4983019;28;20038;-59
2021/07/17 07:39:12;;;;;;;48.88;7.15;;;20.90;92.00;;;;;;4981807;28;20424;-59
2021/07/17 07:41:37;;;;;;;47.35;7.95;;;20.90;92.00;;;;;;4982036;28;20144;-59
2021/07/17 07:44:03;;;;;;;30.40;6.95;;;20.90;92.00;;;;;;4982224;28;20101;-60
2021/07/17 07:46:31;;;;;;;38.35;8.00;;;20.90;92.00;;;;;;4984109;28;20026;-59
2021/07/17 07:48:56;;;;;;;26.60;6.60;;;20.90;91.90;;;;;;4984595;28;20018;-63
2021/07/17 07:51:22;;;;;;;34.95;7.82;;;21.00;92.20;;;;;;4981452;28;20394;-62
2021/07/17 07:53:47;;;;;;;35.40;8.40;;;21.00;92.10;;;;;;4983040;28;20046;-63
2021/07/17 07:56:13;;;;;;;30.58;8.13;;;21.00;92.00;;;;;;4983193;28;20034;-59
2021/07/17 07:58:38;;;;;;;38.33;7.57;;;21.00;92.00;;;;;;4979748;28;20034;-60
2021/07/17 08:01:04;;;;;;;27.15;7.00;;;21.10;92.10;;;;;;4982682;28;20037;-58
2021/07/17 08:03:29;;;;;;;39.05;8.25;;;21.10;91.90;;;;;;4980167;28;20026;-59
2021/07/17 08:05:55;;;;;;;30.48;8.63;;;21.10;92.10;;;;;;4981587;28;20112;-60
2021/07/17 08:08:20;;;;;;;29.13;7.93;;;21.10;92.10;;;;;;4996242;28;20018;-59
2021/07/17 08:10:46;;;;;;;30.67;8.80;;;21.10;92.30;;;;;;4983673;28;20037;-59
2021/07/17 08:13:12;;;;;;;24.27;8.35;;;21.10;92.30;;;;;;4997816;28;20034;-59
2021/07/17 08:15:37;;;;;;;27.45;7.63;;;21.10;92.40;;;;;;4981263;28;20065;-59
2021/07/17 08:18:03;;;;;;;39.92;9.95;;;21.00;92.40;;;;;;4980811;28;20517;-59
2021/07/17 08:20:28;;;;;;;41.33;9.75;;;21.00;92.60;;;;;;4979958;28;20065;-59
2021/07/17 08:22:54;;;;;;;33.40;8.07;;;21.00;92.80;;;;;;4982520;28;20030;-60
2021/07/17 08:25:19;;;;;;;33.58;9.45;;;21.00;92.90;;;;;;4981295;28;20457;-59
2021/07/17 08:27:45;;;;;;;29.58;8.90;;;20.90;93.10;;;;;;4983981;28;20078;-59
2021/07/17 08:30:12;;;;;;;33.90;8.82;;;20.90;93.20;;;;;;4980284;28;20034;-60
2021/07/17 08:32:40;;;;;;;32.35;10.07;;;21.00;93.30;;;;;;4980454;28;20045;-59
2021/07/17 08:35:06;;;;;;;34.78;9.30;;;21.00;93.50;;;;;;4979951;28;20026;-59
2021/07/17 08:37:35;;;;;;;40.20;10.95;;;21.00;93.50;;;;;;4981243;28;20085;-59
2021/07/17 08:40:04;;;;;;;56.92;11.00;;;21.00;93.50;;;;;;4980068;28;20453;-60
2021/07/17 08:42:32;;;;;;;60.38;11.52;;;21.00;93.70;;;;;;4995373;28;20194;-59
2021/07/17 08:44:58;;;;;;;46.30;10.13;;;21.10;93.70;;;;;;4979571;28;20030;-60
2021/07/17 08:47:29;;;;;;;54.40;11.30;;;21.10;93.70;;;;;;4978294;28;20512;-59
2021/07/17 08:49:55;;;;;;;42.13;9.93;;;21.10;93.50;;;;;;4966364;28;20026;-60
2021/07/17 08:52:21;;;;;;;37.15;9.55;;;21.20;93.40;;;;;;4979479;28;20065;-59
2021/07/17 08:54:46;;;;;;;38.25;9.07;;;21.10;93.20;;;;;;4980624;28;20419;-59
2021/07/17 08:57:12;;;;;;;45.38;9.57;;;21.20;93.10;;;;;;4963852;28;20038;-59
2021/07/17 08:59:38;;;;;;;38.72;9.77;;;21.20;93.00;;;;;;4983227;28;20033;-59
2021/07/17 09:02:05;;;;;;;33.58;9.95;;;21.20;93.00;;;;;;4980914;28;20374;-59
2021/07/17 09:04:31;;;;;;;58.58;10.95;;;21.30;93.00;;;;;;4983079;28;20117;-59
2021/07/17 09:06:57;;;;;;;48.72;11.20;;;21.30;93.00;;;;;;4982064;28;20117;-59
2021/07/17 09:09:33;;;;;;;48.30;11.10;;;21.30;93.00;;;;;;4978338;28;20038;-59
2021/07/17 09:11:59;;;;;;;40.30;10.23;;;21.30;93.00;;;;;;4979208;28;20026;-58
2021/07/17 09:14:38;;;;;;;36.60;10.18;;;21.30;93.00;;;;;;4979247;28;20480;-59
2021/07/17 09:17:03;;;;;;;54.58;11.60;;;21.30;93.00;;;;;;4979920;28;20026;-59
2021/07/17 09:19:29;;;;;;;41.60;11.25;;;21.30;92.90;;;;;;4980285;28;20433;-60
2021/07/17 09:21:55;;;;;;;61.72;12.48;;;21.30;93.10;;;;;;4980806;28;21095;-59
2021/07/17 09:24:20;;;;;;;53.20;10.88;;;21.40;93.30;;;;;;4980199;28;20039;-59
2021/07/17 09:26:51;;;;;;;68.47;11.85;;;21.40;93.40;;;;;;4980098;28;20026;-59
2021/07/17 09:29:17;;;;;;;67.45;12.85;;;21.40;93.40;;;;;;4981510;28;20451;-59
2021/07/17 09:31:49;;;;;;;63.10;11.80;;;21.40;93.50;;;;;;4980651;28;20091;-59
2021/07/17 09:34:14;;;;;;;70.55;12.50;;;21.40;93.50;;;;;;4981362;28;20564;-59
2021/07/17 09:36:50;;;;;;;73.55;11.98;;;21.40;93.70;;;;;;4979659;28;20035;-59
2021/07/17 09:39:20;;;;;;;80.95;12.82;;;21.40;93.60;;;;;;4961400;28;20073;-59
2021/07/17 09:41:56;;;;;;;63.63;13.05;;;21.50;93.60;;;;;;4962487;28;20073;-59
2021/07/17 09:44:22;;;;;;;69.53;12.70;;;21.50;93.50;;;;;;4978885;28;20022;-59
2021/07/17 09:46:48;;;;;;;48.72;12.05;;;21.50;93.30;;;;;;4978616;28;20519;-59
2021/07/17 09:49:13;;;;;;;61.05;10.93;;;21.50;93.30;;;;;;4981982;28;20115;-59
2021/07/17 09:51:39;;;;;;;59.50;11.70;;;21.50;93.40;;;;;;4980788;28;20286;-60
2021/07/17 09:54:06;;;;;;;49.95;11.40;;;21.50;93.40;;;;;;4984460;28;20092;-61
2021/07/17 09:56:34;;;;;;;88.50;12.85;;;21.50;93.50;;;;;;4982861;28;20500;-59
2021/07/17 09:59:01;;;;;;;68.25;12.35;;;21.60;93.40;;;;;;4982860;28;20030;-61
2021/07/17 10:01:42;;;;;;;78.63;13.05;;;21.60;93.40;;;;;;4983333;28;20030;-59
2021/07/17 10:04:12;;;;;;;67.38;12.15;;;21.60;93.30;;;;;;4981539;28;20022;-60
2021/07/17 10:06:45;;;;;;;75.63;13.63;;;21.60;93.10;;;;;;4982503;28;20456;-61
2021/07/17 10:09:16;;;;;;;75.00;12.85;;;21.70;93.10;;;;;;4985626;28;20030;-60
2021/07/17 10:11:44;;;;;;;72.70;11.70;;;21.70;93.10;;;;;;4986407;28;20106;-59
2021/07/17 10:14:20;;;;;;;63.15;10.55;;;21.70;92.90;;;;;;4982054;28;20038;-59
2021/07/17 10:16:49;;;;;;;49.20;10.30;;;21.70;93.00;;;;;;4980154;28;20042;-58
2021/07/17 10:19:18;;;;;;;52.42;11.00;;;21.70;92.50;;;;;;4982243;28;20077;-58
2021/07/17 10:21:44;;;;;;;65.93;12.38;;;21.70;92.40;;;;;;4984474;28;20363;-59
2021/07/17 10:24:11;;;;;;;57.72;10.70;;;21.70;92.40;;;;;;4982324;28;20087;-59
2021/07/17 10:26:37;;;;;;;51.58;11.15;;;21.70;92.50;;;;;;4983160;28;20094;-59
2021/07/17 10:29:05;;;;;;;76.28;12.02;;;21.80;92.50;;;;;;4983105;28;20430;-58
2021/07/17 10:31:30;;;;;;;61.58;12.65;;;21.80;92.40;;;;;;4980792;28;20216;-59
2021/07/17 10:33:56;;;;;;;45.80;10.13;;;21.80;92.30;;;;;;4980749;28;20029;-59
2021/07/17 10:36:21;;;;;;;45.85;9.80;;;21.80;92.10;;;;;;4982135;28;20849;-59
2021/07/17 10:38:48;;;;;;;39.65;10.90;;;21.90;91.80;;;;;;4980793;28;20042;-58
2021/07/17 10:41:16;;;;;;;43.72;9.57;;;21.80;91.80;;;;;;4980931;28;20038;-59
2021/07/17 10:43:41;;;;;;;53.92;10.35;;;21.80;92.00;;;;;;4965927;28;20080;-59
2021/07/17 10:46:26;;;;;;;59.17;11.88;;;21.90;92.10;;;;;;4982367;28;20546;-59
2021/07/17 10:48:55;;;;;;;47.85;10.50;;;21.80;92.10;;;;;;4983372;28;20144;-59
2021/07/17 10:51:25;;;;;;;39.17;10.05;;;21.90;92.10;;;;;;4983451;28;20030;-59
2021/07/17 10:53:53;;;;;;;56.03;10.52;;;21.90;92.00;;;;;;4982831;28;20422;-59
2021/07/17 10:56:28;;;;;;;48.08;11.02;;;22.00;91.90;;;;;;4981083;28;20133;-59
2021/07/17 10:58:57;;;;;;;51.80;10.67;;;22.00;91.80;;;;;;4979927;28;20474;-59
2021/07/17 11:01:23;;;;;;;34.05;9.85;;;22.10;91.70;;;;;;4981790;28;20022;-59
2021/07/17 11:03:48;;;;;;;43.22;9.48;;;22.00;91.60;;;;;;4982810;28;20590;-59
2021/07/17 11:06:31;;;;;;;36.28;9.05;;;22.00;91.50;;;;;;4983163;28;20054;-59
2021/07/17 11:08:57;;;;;;;46.67;10.00;;;22.10;91.50;;;;;;4966328;28;20042;-59
2021/07/17 11:11:35;;;;;;;36.75;9.05;;;22.10;91.60;;;;;;4980603;28;20116;-59
2021/07/17 11:14:07;;;;;;;30.73;8.43;;;22.10;91.40;;;;;;4981224;28;20022;-59
2021/07/17 11:16:43;;;;;;;31.08;8.45;;;22.10;91.30;;;;;;4983145;28;20040;-59
2021/07/17 11:19:25;;;;;;;28.95;8.82;;;22.10;91.20;;;;;;4980427;28;20026;-60
2021/07/17 11:21:51;;;;;;;23.40;8.25;;;22.20;91.00;;;;;;4981839;28;20038;-59
2021/07/17 11:24:17;;;;;;;36.88;8.73;;;22.20;91.00;;;;;;4979370;28;20034;-59
2021/07/17 11:26:42;;;;;;;30.00;8.35;;;22.20;91.00;;;;;;4983493;28;20041;-58
2021/07/17 11:29:12;;;;;;;34.85;7.57;;;22.20;91.00;;;;;;4980805;28;20027;-59
2021/07/17 11:31:48;;;;;;;39.85;9.20;;;22.20;91.00;;;;;;4981445;28;20371;-59
2021/07/17 11:34:22;;;;;;;54.80;9.95;;;22.30;91.00;;;;;;4979064;28;20064;-59
2021/07/17 11:36:48;;;;;;;34.67;8.75;;;22.30;90.80;;;;;;4981400;28;20453;-59
2021/07/17 11:39:18;;;;;;;35.65;8.88;;;22.40;90.80;;;;;;4981317;28;20137;-59
2021/07/17 11:41:44;;;;;;;40.97;8.98;;;22.40;90.70;;;;;;4983246;28;20038;-60
2021/07/17 11:44:09;;;;;;;33.03;9.57;;;22.40;90.70;;;;;;4979569;28;20039;-60
2021/07/17 11:46:35;;;;;;;71.90;12.50;;;22.50;90.70;;;;;;4981914;28;20126;-59
2021/07/17 11:49:04;;;;;;;64.57;10.90;;;22.60;90.70;;;;;;4981092;28;20038;-59
2021/07/17 11:51:30;;;;;;;51.97;10.57;;;22.60;90.60;;;;;;4982523;28;20043;-59
2021/07/17 11:53:56;;;;;;;99.80;13.02;;;22.70;90.40;;;;;;4981228;28;20277;-62
2021/07/17 11:56:22;;;;;;;45.20;10.13;;;22.70;90.30;;;;;;4982774;28;20022;-59
2021/07/17 11:58:47;;;;;;;46.05;9.25;;;22.80;90.30;;;;;;4979883;28;20486;-59
2021/07/17 12:01:14;;;;;;;44.72;10.13;;;22.80;90.20;;;;;;4981201;28;20034;-59
2021/07/17 12:03:41;;;;;;;47.25;9.27;;;22.80;90.40;;;;;;4982413;28;20042;-59
2021/07/17 12:06:07;;;;;;;48.13;8.82;;;22.80;90.10;;;;;;4980696;28;20153;-59
2021/07/17 12:08:32;;;;;;;51.22;8.98;;;22.90;90.00;;;;;;4979743;28;20034;-60
2021/07/17 12:10:58;;;;;;;49.25;8.60;;;22.90;89.60;;;;;;4979626;28;20045;-59
2021/07/17 12:13:25;;;;;;;50.80;9.55;;;23.00;89.20;;;;;;4980773;28;20046;-59
2021/07/17 12:15:51;;;;;;;40.90;7.78;;;22.90;89.40;;;;;;4981966;28;20117;-60
2021/07/17 12:18:18;;;;;;;51.55;9.43;;;23.00;89.40;;;;;;4982560;28;20496;-59
2021/07/17 12:20:44;;;;;;;54.10;9.05;;;23.00;89.40;;;;;;4981058;28;20026;-59
2021/07/17 12:23:11;;;;;;;63.85;11.15;;;23.00;89.30;;;;;;4980679;28;20038;-59
2021/07/17 12:25:42;;;;;;;81.82;12.13;;;23.00;89.50;;;;;;4980474;28;20103;-60
2021/07/17 12:28:12;;;;;;;74.57;12.20;;;23.10;89.60;;;;;;4980586;28;20114;-59
2021/07/17 12:30:50;;;;;;;197.63;21.88;;;23.10;89.50;;;;;;4980791;28;20063;-59
2021/07/17 12:33:34;;;;;;;88.40;14.15;;;23.20;89.60;;;;;;4980848;28;20536;-60
2021/07/17 12:36:08;;;;;;;114.25;14.18;;;23.20;89.60;;;;;;4983163;28;20049;-58